WZZ67 LHBP-EDLW
Flight info
| Callsign | WZZ67 |
|---|---|
| Flight time | 1h 32m |
| Altitude | 36000 |
| Route | GILEP DCT ZOLKU DCT BEGLA DCT DITIS DCT OKG L984 OSBIT Z719 BIBTA N850 GISEM Z505 ARPEG Z850 ADEMI ADEMI2A |
| Aircraft | A21N/M-SDE2E3FGHIRWXY/LB1 |
Departure
| Time | 2026-05-04 18:20 |
|---|---|
| Airport | Budapest Liszt Ferenc International Airport (LHBP) |
Arrival
| Time | 2026-05-04 19:52 |
|---|---|
| Airport | Dortmund Airport (EDLW) |
| Time | Latitude | Longitude | Altitude | Speed | Heading |
|---|---|---|---|---|---|
| 2026-05-04 17:39 | 47.43425 | 19.26619 | 461 ft | 0 kts | 222° |
| 2026-05-04 18:09 | 47.43438 | 19.26637 | 462 ft | 4 kts | 222° |
| 2026-05-04 18:10 | 47.43453 | 19.26660 | 462 ft | 4 kts | 253° |
| 2026-05-04 18:10 | 47.43450 | 19.26693 | 463 ft | 4 kts | 302° |
| 2026-05-04 18:10 | 47.43434 | 19.26724 | 460 ft | 4 kts | 313° |
| 2026-05-04 18:10 | 47.43423 | 19.26742 | 460 ft | 0 kts | 312° |
| 2026-05-04 18:15 | 47.43434 | 19.26723 | 460 ft | 4 kts | 311° |
| 2026-05-04 18:15 | 47.43461 | 19.26679 | 459 ft | 7 kts | 313° |
| 2026-05-04 18:16 | 47.43497 | 19.26621 | 463 ft | 9 kts | 313° |
| 2026-05-04 18:16 | 47.43543 | 19.26548 | 463 ft | 11 kts | 312° |
| 2026-05-04 18:16 | 47.43597 | 19.26461 | 463 ft | 12 kts | 313° |
| 2026-05-04 18:17 | 47.43698 | 19.26352 | 463 ft | 10 kts | 23° |
| 2026-05-04 18:17 | 47.43764 | 19.26415 | 463 ft | 13 kts | 4° |
| 2026-05-04 18:17 | 47.43871 | 19.26283 | 463 ft | 11 kts | 312° |
| 2026-05-04 18:18 | 47.43910 | 19.26221 | 463 ft | 8 kts | 314° |
| 2026-05-04 18:18 | 47.43968 | 19.26225 | 464 ft | 9 kts | 37° |
| 2026-05-04 18:18 | 47.44020 | 19.26294 | 466 ft | 12 kts | 41° |
| 2026-05-04 18:18 | 47.44067 | 19.26412 | 473 ft | 15 kts | 79° |
| 2026-05-04 18:19 | 47.43801 | 19.26962 | 479 ft | 87 kts | 132° |
| 2026-05-04 18:19 | 47.43240 | 19.27857 | 468 ft | 147 kts | 133° |
| 2026-05-04 18:19 | 47.42499 | 19.29049 | 781 ft | 160 kts | 134° |
| 2026-05-04 18:20 | 47.41789 | 19.30291 | 1438 ft | 160 kts | 123° |
| 2026-05-04 18:20 | 47.41314 | 19.31820 | 1962 ft | 169 kts | 121° |
| 2026-05-04 18:20 | 47.40714 | 19.33430 | 2437 ft | 184 kts | 124° |
| 2026-05-04 18:20 | 47.40058 | 19.35139 | 3020 ft | 199 kts | 123° |
| 2026-05-04 18:21 | 47.39366 | 19.36959 | 3624 ft | 215 kts | 123° |
| 2026-05-04 18:21 | 47.38595 | 19.38985 | 4149 ft | 236 kts | 123° |
| 2026-05-04 18:21 | 47.37502 | 19.40924 | 4710 ft | 252 kts | 146° |
| 2026-05-04 18:21 | 47.35908 | 19.41950 | 5392 ft | 258 kts | 172° |
| 2026-05-04 18:22 | 47.34118 | 19.41784 | 6225 ft | 263 kts | 198° |
| 2026-05-04 18:22 | 47.32543 | 19.40390 | 7017 ft | 269 kts | 225° |
| 2026-05-04 18:22 | 47.31478 | 19.38114 | 7869 ft | 273 kts | 242° |
| 2026-05-04 18:22 | 47.30662 | 19.35560 | 8744 ft | 277 kts | 244° |
| 2026-05-04 18:23 | 47.29912 | 19.32920 | 9556 ft | 284 kts | 254° |
| 2026-05-04 18:23 | 47.29774 | 19.29993 | 10293 ft | 295 kts | 276° |
| 2026-05-04 18:23 | 47.30342 | 19.27075 | 10692 ft | 315 kts | 289° |
| 2026-05-04 18:23 | 47.31195 | 19.23931 | 11241 ft | 327 kts | 290° |
| 2026-05-04 18:24 | 47.32047 | 19.20793 | 11998 ft | 332 kts | 290° |
| 2026-05-04 18:24 | 47.32889 | 19.17602 | 12810 ft | 336 kts | 290° |
| 2026-05-04 18:24 | 47.33727 | 19.14370 | 13623 ft | 340 kts | 289° |
| 2026-05-04 18:24 | 47.34568 | 19.11097 | 14379 ft | 343 kts | 289° |
| 2026-05-04 18:25 | 47.35405 | 19.07809 | 15115 ft | 346 kts | 289° |
| 2026-05-04 18:25 | 47.36254 | 19.04474 | 15854 ft | 349 kts | 290° |
| 2026-05-04 18:25 | 47.37110 | 19.01098 | 16591 ft | 353 kts | 290° |
| 2026-05-04 18:25 | 47.37974 | 18.97686 | 17338 ft | 356 kts | 289° |
| 2026-05-04 18:26 | 47.38841 | 18.94256 | 18074 ft | 359 kts | 289° |
| 2026-05-04 18:26 | 47.39711 | 18.90788 | 18752 ft | 362 kts | 289° |
| 2026-05-04 18:26 | 47.40589 | 18.87284 | 19364 ft | 365 kts | 290° |
| 2026-05-04 18:26 | 47.41472 | 18.83758 | 20011 ft | 367 kts | 289° |
| 2026-05-04 18:27 | 47.42363 | 18.80210 | 20643 ft | 370 kts | 290° |
| 2026-05-04 18:27 | 47.43263 | 18.76630 | 21242 ft | 373 kts | 290° |
| 2026-05-04 18:27 | 47.44168 | 18.73011 | 21826 ft | 377 kts | 290° |
| 2026-05-04 18:27 | 47.45081 | 18.69357 | 22428 ft | 380 kts | 290° |
| 2026-05-04 18:28 | 47.45992 | 18.65683 | 23010 ft | 383 kts | 290° |
| 2026-05-04 18:28 | 47.46914 | 18.61964 | 23588 ft | 386 kts | 290° |
| 2026-05-04 18:28 | 47.47845 | 18.58224 | 24087 ft | 389 kts | 290° |
| 2026-05-04 18:28 | 47.48780 | 18.54463 | 24584 ft | 391 kts | 290° |
| 2026-05-04 18:29 | 47.49718 | 18.50675 | 25049 ft | 394 kts | 290° |
| 2026-05-04 18:29 | 47.50657 | 18.46863 | 25503 ft | 396 kts | 290° |
| 2026-05-04 18:29 | 47.51601 | 18.43025 | 25965 ft | 398 kts | 290° |
| 2026-05-04 18:29 | 47.52552 | 18.39165 | 26413 ft | 401 kts | 290° |
| 2026-05-04 18:30 | 47.54471 | 18.31357 | 27258 ft | 406 kts | 290° |
| 2026-05-04 18:30 | 47.55392 | 18.27598 | 27647 ft | 409 kts | 290° |
| 2026-05-04 18:30 | 47.56365 | 18.23628 | 28081 ft | 411 kts | 290° |
| 2026-05-04 18:31 | 47.57336 | 18.19645 | 28505 ft | 413 kts | 290° |
| 2026-05-04 18:31 | 47.58313 | 18.15632 | 28904 ft | 416 kts | 290° |
| 2026-05-04 18:31 | 47.59296 | 18.11594 | 29299 ft | 418 kts | 290° |
| 2026-05-04 18:31 | 47.60281 | 18.07535 | 29660 ft | 420 kts | 290° |
| 2026-05-04 18:32 | 47.61273 | 18.03447 | 30020 ft | 423 kts | 290° |
| 2026-05-04 18:32 | 47.62268 | 17.99330 | 30323 ft | 425 kts | 290° |
| 2026-05-04 18:32 | 47.63265 | 17.95194 | 30636 ft | 427 kts | 290° |
| 2026-05-04 18:32 | 47.64265 | 17.91035 | 30951 ft | 429 kts | 290° |
| 2026-05-04 18:33 | 47.65267 | 17.86862 | 31244 ft | 430 kts | 290° |
| 2026-05-04 18:33 | 47.66273 | 17.82676 | 31559 ft | 432 kts | 290° |
| 2026-05-04 18:33 | 47.67279 | 17.78487 | 31941 ft | 431 kts | 290° |
| 2026-05-04 18:33 | 47.68278 | 17.74303 | 32367 ft | 429 kts | 290° |
| 2026-05-04 18:34 | 47.69271 | 17.70148 | 32770 ft | 427 kts | 290° |
| 2026-05-04 18:34 | 47.70258 | 17.66003 | 33163 ft | 425 kts | 290° |
| 2026-05-04 18:34 | 47.71236 | 17.61868 | 33528 ft | 424 kts | 290° |
| 2026-05-04 18:34 | 47.72213 | 17.57741 | 33882 ft | 423 kts | 290° |
| 2026-05-04 18:35 | 47.73182 | 17.53618 | 34001 ft | 422 kts | 290° |
| 2026-05-04 18:35 | 47.75125 | 17.45414 | 33994 ft | 420 kts | 290° |
| 2026-05-04 18:36 | 47.77045 | 17.37240 | 33981 ft | 419 kts | 290° |
| 2026-05-04 18:36 | 47.78946 | 17.29108 | 33974 ft | 419 kts | 290° |
| 2026-05-04 18:37 | 47.80869 | 17.20912 | 34292 ft | 420 kts | 290° |
| 2026-05-04 18:37 | 47.81823 | 17.16812 | 34575 ft | 419 kts | 289° |
| 2026-05-04 18:37 | 47.82840 | 17.12771 | 34841 ft | 417 kts | 295° |
| 2026-05-04 18:37 | 47.84288 | 17.09038 | 35066 ft | 417 kts | 305° |
| 2026-05-04 18:38 | 47.86029 | 17.05582 | 35306 ft | 417 kts | 307° |
| 2026-05-04 18:38 | 47.87807 | 17.02186 | 35544 ft | 416 kts | 307° |
| 2026-05-04 18:38 | 47.89590 | 16.98782 | 35788 ft | 416 kts | 307° |
| 2026-05-04 18:38 | 47.91354 | 16.95365 | 35965 ft | 417 kts | 307° |
| 2026-05-04 18:39 | 47.93119 | 16.91945 | 35998 ft | 417 kts | 307° |
| 2026-05-04 18:39 | 47.96498 | 16.85371 | 35955 ft | 416 kts | 306° |
| 2026-05-04 18:40 | 48.00012 | 16.78495 | 35944 ft | 416 kts | 306° |
| 2026-05-04 18:40 | 48.03531 | 16.71622 | 35944 ft | 416 kts | 306° |
| 2026-05-04 18:41 | 48.07019 | 16.64729 | 35938 ft | 416 kts | 306° |
| 2026-05-04 18:41 | 48.10524 | 16.57827 | 35943 ft | 416 kts | 306° |
| 2026-05-04 18:42 | 48.14010 | 16.50929 | 35938 ft | 415 kts | 306° |
| 2026-05-04 18:42 | 48.17499 | 16.44031 | 35942 ft | 415 kts | 306° |
| 2026-05-04 18:43 | 48.20966 | 16.37143 | 35938 ft | 416 kts | 306° |
| 2026-05-04 18:43 | 48.24451 | 16.30215 | 35938 ft | 416 kts | 306° |
| 2026-05-04 18:44 | 48.27908 | 16.23253 | 35931 ft | 416 kts | 305° |
| 2026-05-04 18:44 | 48.31400 | 16.16305 | 35918 ft | 416 kts | 306° |
| 2026-05-04 18:45 | 48.34887 | 16.09352 | 35917 ft | 416 kts | 305° |
| 2026-05-04 18:45 | 48.38357 | 16.02376 | 35910 ft | 417 kts | 305° |
| 2026-05-04 18:46 | 48.41828 | 15.95374 | 35914 ft | 417 kts | 305° |
| 2026-05-04 18:46 | 48.45271 | 15.88418 | 35904 ft | 416 kts | 305° |
| 2026-05-04 18:47 | 48.48728 | 15.81424 | 35904 ft | 416 kts | 304° |
| 2026-05-04 18:47 | 48.52164 | 15.74411 | 35907 ft | 416 kts | 304° |
| 2026-05-04 18:48 | 48.55624 | 15.67385 | 35908 ft | 417 kts | 304° |
| 2026-05-04 18:48 | 48.59080 | 15.60342 | 35914 ft | 418 kts | 304° |
| 2026-05-04 18:49 | 48.62522 | 15.53277 | 35914 ft | 418 kts | 304° |
| 2026-05-04 18:49 | 48.65961 | 15.46200 | 35919 ft | 418 kts | 304° |
| 2026-05-04 18:50 | 48.69413 | 15.39121 | 35929 ft | 418 kts | 304° |
| 2026-05-04 18:50 | 48.72862 | 15.32029 | 35924 ft | 419 kts | 304° |
| 2026-05-04 18:51 | 48.76302 | 15.24923 | 35919 ft | 418 kts | 304° |
| 2026-05-04 18:51 | 48.79734 | 15.17799 | 35920 ft | 418 kts | 304° |
| 2026-05-04 18:52 | 48.83160 | 15.10679 | 35924 ft | 418 kts | 304° |
| 2026-05-04 18:52 | 48.86578 | 15.03546 | 35924 ft | 418 kts | 304° |
| 2026-05-04 18:53 | 48.89995 | 14.96389 | 35919 ft | 419 kts | 303° |
| 2026-05-04 18:53 | 48.93404 | 14.89210 | 35917 ft | 419 kts | 303° |
| 2026-05-04 18:54 | 48.96827 | 14.82030 | 35916 ft | 419 kts | 304° |
| 2026-05-04 18:54 | 49.00246 | 14.74854 | 35917 ft | 419 kts | 303° |
| 2026-05-04 18:55 | 49.03634 | 14.67637 | 35933 ft | 418 kts | 303° |
| 2026-05-04 18:55 | 49.08714 | 14.56851 | 35920 ft | 420 kts | 303° |
| 2026-05-04 18:56 | 49.12127 | 14.49629 | 35922 ft | 420 kts | 303° |
| 2026-05-04 18:56 | 49.14971 | 14.43551 | 35924 ft | 420 kts | 303° |
| 2026-05-04 18:57 | 49.18368 | 14.36307 | 35923 ft | 419 kts | 303° |
| 2026-05-04 18:57 | 49.21748 | 14.29039 | 35932 ft | 420 kts | 302° |
| 2026-05-04 18:58 | 49.25136 | 14.21756 | 35925 ft | 420 kts | 302° |
| 2026-05-04 18:58 | 49.28525 | 14.14459 | 35932 ft | 420 kts | 302° |
| 2026-05-04 18:59 | 49.31899 | 14.07142 | 35930 ft | 420 kts | 302° |
| 2026-05-04 18:59 | 49.35287 | 13.99837 | 35935 ft | 420 kts | 302° |
| 2026-05-04 19:00 | 49.38619 | 13.92571 | 35941 ft | 419 kts | 302° |
| 2026-05-04 19:00 | 49.41975 | 13.85238 | 35936 ft | 420 kts | 302° |
| 2026-05-04 19:01 | 49.45342 | 13.77908 | 35934 ft | 420 kts | 302° |
| 2026-05-04 19:01 | 49.48703 | 13.70563 | 35933 ft | 420 kts | 302° |
| 2026-05-04 19:02 | 49.52049 | 13.63193 | 35933 ft | 420 kts | 302° |
| 2026-05-04 19:02 | 49.55392 | 13.55831 | 35945 ft | 420 kts | 301° |
| 2026-05-04 19:03 | 49.58715 | 13.48423 | 35939 ft | 421 kts | 301° |
| 2026-05-04 19:03 | 49.62049 | 13.41006 | 35935 ft | 421 kts | 301° |
| 2026-05-04 19:04 | 49.65386 | 13.33603 | 35936 ft | 421 kts | 301° |
| 2026-05-04 19:04 | 49.68740 | 13.26207 | 35936 ft | 420 kts | 301° |
| 2026-05-04 19:05 | 49.72059 | 13.18799 | 35937 ft | 420 kts | 301° |
| 2026-05-04 19:05 | 49.75380 | 13.11370 | 35938 ft | 420 kts | 301° |
| 2026-05-04 19:06 | 49.78664 | 13.03913 | 35941 ft | 420 kts | 301° |
| 2026-05-04 19:06 | 49.81977 | 12.96476 | 35940 ft | 420 kts | 301° |
| 2026-05-04 19:07 | 49.85275 | 12.89022 | 35944 ft | 420 kts | 301° |
| 2026-05-04 19:07 | 49.88563 | 12.81548 | 35949 ft | 420 kts | 301° |
| 2026-05-04 19:08 | 49.91853 | 12.74060 | 35944 ft | 420 kts | 301° |
| 2026-05-04 19:08 | 49.95149 | 12.66553 | 35949 ft | 421 kts | 300° |
| 2026-05-04 19:09 | 49.98431 | 12.59051 | 35956 ft | 419 kts | 300° |
| 2026-05-04 19:09 | 50.01710 | 12.51567 | 35953 ft | 419 kts | 300° |
| 2026-05-04 19:10 | 50.04919 | 12.44019 | 35951 ft | 416 kts | 295° |
| 2026-05-04 19:10 | 50.06061 | 12.39918 | 35957 ft | 411 kts | 283° |
| 2026-05-04 19:10 | 50.06603 | 12.35579 | 35954 ft | 408 kts | 272° |
| 2026-05-04 19:11 | 50.06732 | 12.26784 | 35947 ft | 407 kts | 268° |
| 2026-05-04 19:11 | 50.06791 | 12.17970 | 35947 ft | 407 kts | 268° |
| 2026-05-04 19:12 | 50.06944 | 12.04755 | 35951 ft | 407 kts | 268° |
| 2026-05-04 19:13 | 50.07016 | 11.95996 | 35954 ft | 407 kts | 268° |
| 2026-05-04 19:13 | 50.07095 | 11.87179 | 35956 ft | 408 kts | 268° |
| 2026-05-04 19:14 | 50.07157 | 11.78296 | 35956 ft | 408 kts | 268° |
| 2026-05-04 19:14 | 50.07215 | 11.69535 | 35954 ft | 408 kts | 268° |
| 2026-05-04 19:15 | 50.07276 | 11.60708 | 35955 ft | 408 kts | 268° |
| 2026-05-04 19:15 | 50.07330 | 11.51882 | 35942 ft | 408 kts | 268° |
| 2026-05-04 19:16 | 50.07374 | 11.43039 | 35959 ft | 409 kts | 268° |
| 2026-05-04 19:16 | 50.07399 | 11.34187 | 35950 ft | 409 kts | 268° |
| 2026-05-04 19:17 | 50.07434 | 11.25339 | 35953 ft | 409 kts | 268° |
| 2026-05-04 19:17 | 50.07461 | 11.16487 | 35956 ft | 409 kts | 268° |
| 2026-05-04 19:18 | 50.07482 | 11.07628 | 35955 ft | 409 kts | 268° |
| 2026-05-04 19:18 | 50.07493 | 10.98972 | 35961 ft | 408 kts | 268° |
| 2026-05-04 19:19 | 50.07502 | 10.90152 | 35949 ft | 407 kts | 267° |
| 2026-05-04 19:19 | 50.07502 | 10.81350 | 35956 ft | 407 kts | 267° |
| 2026-05-04 19:20 | 50.07488 | 10.72541 | 35956 ft | 407 kts | 267° |
| 2026-05-04 19:20 | 50.07474 | 10.63747 | 35960 ft | 406 kts | 267° |
| 2026-05-04 19:21 | 50.07449 | 10.54955 | 35974 ft | 406 kts | 267° |
| 2026-05-04 19:21 | 50.07413 | 10.46153 | 35959 ft | 406 kts | 266° |
| 2026-05-04 19:22 | 50.07378 | 10.37353 | 35960 ft | 407 kts | 266° |
| 2026-05-04 19:22 | 50.07334 | 10.28554 | 35958 ft | 407 kts | 266° |
| 2026-05-04 19:23 | 50.07295 | 10.19747 | 35960 ft | 407 kts | 266° |
| 2026-05-04 19:23 | 50.07268 | 10.10930 | 35958 ft | 407 kts | 266° |
| 2026-05-04 19:24 | 50.07203 | 10.02117 | 35965 ft | 407 kts | 266° |
| 2026-05-04 19:24 | 50.07117 | 9.93302 | 35962 ft | 408 kts | 266° |
| 2026-05-04 19:25 | 50.07032 | 9.84476 | 35970 ft | 408 kts | 266° |
| 2026-05-04 19:25 | 50.07566 | 9.75674 | 35965 ft | 415 kts | 282° |
| 2026-05-04 19:26 | 50.09461 | 9.67159 | 35970 ft | 417 kts | 285° |
| 2026-05-04 19:26 | 50.11335 | 9.59034 | 35974 ft | 417 kts | 285° |
| 2026-05-04 19:27 | 50.13243 | 9.50554 | 35972 ft | 417 kts | 284° |
| 2026-05-04 19:27 | 50.15147 | 9.42127 | 35387 ft | 406 kts | 284° |
| 2026-05-04 19:27 | 50.16075 | 9.37986 | 34795 ft | 402 kts | 284° |
| 2026-05-04 19:28 | 50.16986 | 9.33896 | 34171 ft | 397 kts | 284° |
| 2026-05-04 19:28 | 50.17880 | 9.29860 | 33480 ft | 392 kts | 284° |
| 2026-05-04 19:28 | 50.18768 | 9.25837 | 32594 ft | 392 kts | 284° |
| 2026-05-04 19:28 | 50.19655 | 9.21811 | 31619 ft | 394 kts | 284° |
| 2026-05-04 19:29 | 50.20541 | 9.17755 | 30681 ft | 397 kts | 284° |
| 2026-05-04 19:29 | 50.21439 | 9.13654 | 29677 ft | 401 kts | 285° |
| 2026-05-04 19:29 | 50.22340 | 9.09541 | 28802 ft | 400 kts | 285° |
| 2026-05-04 19:29 | 50.23243 | 9.05461 | 28018 ft | 396 kts | 285° |
| 2026-05-04 19:30 | 50.24136 | 9.01415 | 27231 ft | 391 kts | 285° |
| 2026-05-04 19:30 | 50.25113 | 8.97473 | 26450 ft | 390 kts | 292° |
| 2026-05-04 19:30 | 50.26584 | 8.93903 | 25677 ft | 393 kts | 307° |
| 2026-05-04 19:30 | 50.28607 | 8.91014 | 24980 ft | 397 kts | 322° |
| 2026-05-04 19:31 | 50.30971 | 8.88796 | 24333 ft | 397 kts | 328° |
| 2026-05-04 19:31 | 50.33412 | 8.86790 | 23721 ft | 394 kts | 329° |
| 2026-05-04 19:31 | 50.35829 | 8.84827 | 23118 ft | 390 kts | 329° |
| 2026-05-04 19:31 | 50.38236 | 8.82883 | 22552 ft | 387 kts | 329° |
| 2026-05-04 19:32 | 50.40617 | 8.80963 | 22017 ft | 384 kts | 329° |
| 2026-05-04 19:32 | 50.42982 | 8.79040 | 21492 ft | 381 kts | 329° |
| 2026-05-04 19:32 | 50.45313 | 8.77113 | 20990 ft | 378 kts | 328° |
| 2026-05-04 19:32 | 50.47630 | 8.75201 | 20491 ft | 375 kts | 329° |
| 2026-05-04 19:33 | 50.49935 | 8.73311 | 19999 ft | 372 kts | 329° |
| 2026-05-04 19:33 | 50.52224 | 8.71454 | 19515 ft | 370 kts | 329° |
| 2026-05-04 19:33 | 50.54501 | 8.69590 | 19040 ft | 367 kts | 329° |
| 2026-05-04 19:33 | 50.56759 | 8.67732 | 18573 ft | 364 kts | 329° |
| 2026-05-04 19:34 | 50.58993 | 8.65905 | 18080 ft | 361 kts | 329° |
| 2026-05-04 19:34 | 50.61213 | 8.64110 | 17555 ft | 358 kts | 329° |
| 2026-05-04 19:34 | 50.63418 | 8.62318 | 17020 ft | 355 kts | 329° |
| 2026-05-04 19:34 | 50.65599 | 8.60536 | 16511 ft | 352 kts | 329° |
| 2026-05-04 19:35 | 50.67766 | 8.58762 | 15996 ft | 349 kts | 329° |
| 2026-05-04 19:35 | 50.69914 | 8.56996 | 15507 ft | 347 kts | 329° |
| 2026-05-04 19:35 | 50.72041 | 8.55244 | 15021 ft | 344 kts | 329° |
| 2026-05-04 19:35 | 50.74158 | 8.53496 | 14539 ft | 342 kts | 329° |
| 2026-05-04 19:36 | 50.76259 | 8.51758 | 14064 ft | 340 kts | 329° |
| 2026-05-04 19:36 | 50.78348 | 8.50029 | 13564 ft | 337 kts | 329° |
| 2026-05-04 19:36 | 50.80415 | 8.48317 | 13036 ft | 335 kts | 329° |
| 2026-05-04 19:36 | 50.82474 | 8.46611 | 12534 ft | 332 kts | 329° |
| 2026-05-04 19:37 | 50.84509 | 8.44922 | 12014 ft | 330 kts | 329° |
| 2026-05-04 19:37 | 50.86536 | 8.43242 | 11510 ft | 328 kts | 329° |
| 2026-05-04 19:37 | 50.88544 | 8.41575 | 11098 ft | 326 kts | 329° |
| 2026-05-04 19:37 | 50.90559 | 8.39894 | 10980 ft | 326 kts | 329° |
| 2026-05-04 19:38 | 50.92566 | 8.38223 | 10970 ft | 326 kts | 329° |
| 2026-05-04 19:38 | 50.94579 | 8.36546 | 10974 ft | 327 kts | 329° |
| 2026-05-04 19:38 | 50.96584 | 8.34870 | 10982 ft | 326 kts | 328° |
| 2026-05-04 19:38 | 50.97918 | 8.33751 | 10985 ft | 327 kts | 328° |
| 2026-05-04 19:39 | 51.00599 | 8.31494 | 10988 ft | 327 kts | 329° |
| 2026-05-04 19:39 | 51.01934 | 8.30382 | 10990 ft | 327 kts | 329° |
| 2026-05-04 19:39 | 51.03924 | 8.28659 | 10998 ft | 326 kts | 327° |
| 2026-05-04 19:39 | 51.05899 | 8.26892 | 10988 ft | 324 kts | 327° |
| 2026-05-04 19:40 | 51.07865 | 8.25129 | 10990 ft | 325 kts | 327° |
| 2026-05-04 19:40 | 51.09829 | 8.23369 | 10996 ft | 324 kts | 327° |
| 2026-05-04 19:40 | 51.11846 | 8.21746 | 10999 ft | 326 kts | 334° |
| 2026-05-04 19:40 | 51.13960 | 8.20431 | 10995 ft | 326 kts | 336° |
| 2026-05-04 19:41 | 51.16083 | 8.19148 | 10989 ft | 326 kts | 335° |
| 2026-05-04 19:41 | 51.18205 | 8.17856 | 10988 ft | 327 kts | 335° |
| 2026-05-04 19:41 | 51.20301 | 8.16571 | 10986 ft | 313 kts | 335° |
| 2026-05-04 19:41 | 51.22289 | 8.15346 | 10980 ft | 305 kts | 335° |
| 2026-05-04 19:42 | 51.24262 | 8.14120 | 10982 ft | 304 kts | 335° |
| 2026-05-04 19:42 | 51.26231 | 8.12894 | 10984 ft | 304 kts | 335° |
| 2026-05-04 19:42 | 51.28165 | 8.11692 | 10988 ft | 289 kts | 335° |
| 2026-05-04 19:42 | 51.29979 | 8.10565 | 10974 ft | 271 kts | 335° |
| 2026-05-04 19:43 | 51.31703 | 8.09491 | 10718 ft | 265 kts | 335° |
| 2026-05-04 19:43 | 51.33437 | 8.08402 | 10113 ft | 272 kts | 335° |
| 2026-05-04 19:43 | 51.35226 | 8.07280 | 9332 ft | 281 kts | 335° |
| 2026-05-04 19:43 | 51.37070 | 8.06125 | 8510 ft | 288 kts | 335° |
| 2026-05-04 19:44 | 51.38940 | 8.04952 | 7873 ft | 288 kts | 335° |
| 2026-05-04 19:44 | 51.40796 | 8.03790 | 7424 ft | 285 kts | 335° |
| 2026-05-04 19:44 | 51.42637 | 8.02637 | 7058 ft | 284 kts | 335° |
| 2026-05-04 19:44 | 51.44435 | 8.01512 | 6958 ft | 270 kts | 335° |
| 2026-05-04 19:45 | 51.46151 | 8.00438 | 6731 ft | 261 kts | 335° |
| 2026-05-04 19:45 | 51.47832 | 7.99380 | 6305 ft | 258 kts | 335° |
| 2026-05-04 19:45 | 51.49495 | 7.98332 | 5810 ft | 255 kts | 335° |
| 2026-05-04 19:45 | 51.51120 | 7.97307 | 5324 ft | 253 kts | 335° |
| 2026-05-04 19:46 | 51.52762 | 7.96272 | 5053 ft | 245 kts | 335° |
| 2026-05-04 19:46 | 51.54278 | 7.95319 | 4988 ft | 228 kts | 335° |
| 2026-05-04 19:46 | 51.55693 | 7.94427 | 4907 ft | 213 kts | 335° |
| 2026-05-04 19:46 | 51.57073 | 7.93560 | 4531 ft | 210 kts | 335° |
| 2026-05-04 19:47 | 51.58415 | 7.92716 | 4351 ft | 206 kts | 335° |
| 2026-05-04 19:47 | 51.59749 | 7.91874 | 4179 ft | 205 kts | 336° |
| 2026-05-04 19:47 | 51.60995 | 7.90819 | 4013 ft | 202 kts | 315° |
| 2026-05-04 19:47 | 51.61589 | 7.88869 | 3895 ft | 196 kts | 272° |
| 2026-05-04 19:48 | 51.61210 | 7.86830 | 3811 ft | 193 kts | 238° |
| 2026-05-04 19:48 | 51.60475 | 7.85062 | 3618 ft | 185 kts | 235° |
| 2026-05-04 19:48 | 51.59778 | 7.83357 | 3392 ft | 182 kts | 237° |
| 2026-05-04 19:48 | 51.59120 | 7.81614 | 3150 ft | 182 kts | 239° |
| 2026-05-04 19:49 | 51.58482 | 7.79849 | 2902 ft | 183 kts | 239° |
| 2026-05-04 19:49 | 51.57851 | 7.78080 | 2683 ft | 178 kts | 239° |
| 2026-05-04 19:49 | 51.57258 | 7.76413 | 2448 ft | 166 kts | 239° |
| 2026-05-04 19:49 | 51.56723 | 7.74914 | 2224 ft | 141 kts | 239° |
| 2026-05-04 19:50 | 51.56252 | 7.73593 | 2019 ft | 135 kts | 239° |
| 2026-05-04 19:50 | 51.55798 | 7.72325 | 1849 ft | 135 kts | 239° |
| 2026-05-04 19:50 | 51.55329 | 7.71015 | 1685 ft | 134 kts | 237° |
| 2026-05-04 19:50 | 51.54862 | 7.69723 | 1514 ft | 133 kts | 237° |
| 2026-05-04 19:51 | 51.54395 | 7.68441 | 1339 ft | 133 kts | 237° |
| 2026-05-04 19:51 | 51.53923 | 7.67159 | 1144 ft | 133 kts | 238° |
| 2026-05-04 19:51 | 51.53469 | 7.65868 | 942 ft | 133 kts | 239° |
| 2026-05-04 19:51 | 51.53019 | 7.64578 | 783 ft | 132 kts | 240° |
| 2026-05-04 19:52 | 51.52560 | 7.63296 | 591 ft | 132 kts | 239° |
| 2026-05-04 19:52 | 51.52106 | 7.62009 | 411 ft | 130 kts | 240° |
| 2026-05-04 19:52 | 51.51764 | 7.61034 | 422 ft | 70 kts | 241° |
| 2026-05-04 19:52 | 51.51609 | 7.60574 | 427 ft | 32 kts | 240° |
| 2026-05-04 19:53 | 51.51528 | 7.60361 | 432 ft | 21 kts | 242° |
| 2026-05-04 19:53 | 51.51459 | 7.60240 | 435 ft | 14 kts | 186° |
| 2026-05-04 19:53 | 51.51368 | 7.60311 | 432 ft | 14 kts | 127° |
| 2026-05-04 19:53 | 51.51372 | 7.60432 | 439 ft | 11 kts | 61° |
| 2026-05-04 19:54 | 51.51415 | 7.60553 | 440 ft | 14 kts | 60° |
| 2026-05-04 19:54 | 51.51458 | 7.60675 | 438 ft | 8 kts | 60° |
| 2026-05-04 19:54 | 51.51481 | 7.60739 | 437 ft | 7 kts | 60° |
| 2026-05-04 19:54 | 51.51510 | 7.60823 | 439 ft | 10 kts | 60° |
| 2026-05-04 19:55 | 51.51548 | 7.60931 | 446 ft | 12 kts | 60° |
| 2026-05-04 19:55 | 51.51581 | 7.61032 | 447 ft | 11 kts | 68° |
| 2026-05-04 19:55 | 51.51611 | 7.61150 | 448 ft | 11 kts | 64° |
| 2026-05-04 19:55 | 51.51643 | 7.61264 | 448 ft | 7 kts | 74° |
| 2026-05-04 19:56 | 51.51653 | 7.61358 | 447 ft | 10 kts | 81° |
| 2026-05-04 19:56 | 51.51672 | 7.61438 | 447 ft | 8 kts | 60° |
| 2026-05-04 19:56 | 51.51694 | 7.61502 | 438 ft | 6 kts | 60° |
| 2026-05-04 19:56 | 51.51709 | 7.61545 | 441 ft | 3 kts | 61° |
| 2026-05-04 19:57 | 51.51717 | 7.61568 | 444 ft | 2 kts | 60° |
| 2026-05-04 19:57 | 51.51721 | 7.61579 | 443 ft | 1 kts | 60° |
| 2026-05-04 20:00 | 51.51711 | 7.61551 | 428 ft | 4 kts | 60° |
| 2026-05-04 20:00 | 51.51701 | 7.61521 | 430 ft | 4 kts | 51° |
| 2026-05-04 20:01 | 51.51684 | 7.61503 | 430 ft | 4 kts | 346° |
| 2026-05-04 20:01 | 51.51663 | 7.61520 | 429 ft | 4 kts | 330° |
| 2026-05-04 20:01 | 51.51658 | 7.61524 | 429 ft | 1 kts | 330° |